sensor_id;sensor_type;location;lat;lon;timestamp;temperature;humidity
2639;DHT22;1329;51.384;7.122;2023-04-08T00:00:10;9.80;99.90
2639;DHT22;1329;51.384;7.122;2023-04-08T00:02:48;9.80;99.90
2639;DHT22;1329;51.384;7.122;2023-04-08T00:05:16;9.80;99.90
2639;DHT22;1329;51.384;7.122;2023-04-08T00:07:45;9.70;99.90
2639;DHT22;1329;51.384;7.122;2023-04-08T00:10:15;9.70;99.90
2639;DHT22;1329;51.384;7.122;2023-04-08T00:12:46;9.60;99.90
2639;DHT22;1329;51.384;7.122;2023-04-08T00:15:15;9.60;99.90
2639;DHT22;1329;51.384;7.122;2023-04-08T00:17:46;9.50;99.90
2639;DHT22;1329;51.384;7.122;2023-04-08T00:20:13;9.50;99.90
2639;DHT22;1329;51.384;7.122;2023-04-08T00:22:40;9.50;99.90
2639;DHT22;1329;51.384;7.122;2023-04-08T00:25:11;9.50;99.90
2639;DHT22;1329;51.384;7.122;2023-04-08T00:27:40;9.40;99.90
2639;DHT22;1329;51.384;7.122;2023-04-08T00:30:08;9.40;99.90
2639;DHT22;1329;51.384;7.122;2023-04-08T00:32:36;9.40;99.90
2639;DHT22;1329;51.384;7.122;2023-04-08T00:35:17;9.40;99.90
2639;DHT22;1329;51.384;7.122;2023-04-08T00:37:55;9.40;99.90
2639;DHT22;1329;51.384;7.122;2023-04-08T00:40:22;9.40;99.90
2639;DHT22;1329;51.384;7.122;2023-04-08T00:42:50;9.40;99.90
2639;DHT22;1329;51.384;7.122;2023-04-08T00:45:19;9.40;99.90
2639;DHT22;1329;51.384;7.122;2023-04-08T00:47:47;9.30;99.90
2639;DHT22;1329;51.384;7.122;2023-04-08T00:50:23;9.40;99.90
2639;DHT22;1329;51.384;7.122;2023-04-08T00:52:51;9.30;99.90
2639;DHT22;1329;51.384;7.122;2023-04-08T00:55:20;9.40;99.90
2639;DHT22;1329;51.384;7.122;2023-04-08T00:57:50;9.30;99.90
2639;DHT22;1329;51.384;7.122;2023-04-08T01:00:19;9.30;99.90
2639;DHT22;1329;51.384;7.122;2023-04-08T01:02:59;9.30;99.90
2639;DHT22;1329;51.384;7.122;2023-04-08T01:05:38;9.30;99.90
2639;DHT22;1329;51.384;7.122;2023-04-08T01:08:11;9.30;99.90
2639;DHT22;1329;51.384;7.122;2023-04-08T01:10:41;9.40;99.90
2639;DHT22;1329;51.384;7.122;2023-04-08T01:13:19;9.40;99.90
2639;DHT22;1329;51.384;7.122;2023-04-08T01:15:58;9.40;99.90
2639;DHT22;1329;51.384;7.122;2023-04-08T01:18:37;9.40;99.90
2639;DHT22;1329;51.384;7.122;2023-04-08T01:21:07;9.40;99.90
2639;DHT22;1329;51.384;7.122;2023-04-08T01:26:32;9.40;99.90
2639;DHT22;1329;51.384;7.122;2023-04-08T01:29:00;9.40;99.90
2639;DHT22;1329;51.384;7.122;2023-04-08T01:31:32;9.40;99.90
2639;DHT22;1329;51.384;7.122;2023-04-08T01:34:06;9.40;99.90
2639;DHT22;1329;51.384;7.122;2023-04-08T01:36:39;9.40;99.90
2639;DHT22;1329;51.384;7.122;2023-04-08T01:39:07;9.40;99.90
2639;DHT22;1329;51.384;7.122;2023-04-08T01:41:37;9.40;99.90
2639;DHT22;1329;51.384;7.122;2023-04-08T01:44:09;9.40;99.90
2639;DHT22;1329;51.384;7.122;2023-04-08T01:46:44;9.50;99.90
2639;DHT22;1329;51.384;7.122;2023-04-08T01:49:16;9.50;99.90
2639;DHT22;1329;51.384;7.122;2023-04-08T01:51:48;9.40;99.90
2639;DHT22;1329;51.384;7.122;2023-04-08T01:54:18;9.40;99.90
2639;DHT22;1329;51.384;7.122;2023-04-08T01:56:53;9.40;99.90
2639;DHT22;1329;51.384;7.122;2023-04-08T01:59:29;9.40;99.90
2639;DHT22;1329;51.384;7.122;2023-04-08T02:02:06;9.40;99.90
2639;DHT22;1329;51.384;7.122;2023-04-08T02:04:41;9.40;99.90
2639;DHT22;1329;51.384;7.122;2023-04-08T02:07:13;9.40;99.90
2639;DHT22;1329;51.384;7.122;2023-04-08T02:09:42;9.30;99.90
2639;DHT22;1329;51.384;7.122;2023-04-08T02:12:15;9.40;99.90
2639;DHT22;1329;51.384;7.122;2023-04-08T02:14:45;9.30;99.90
2639;DHT22;1329;51.384;7.122;2023-04-08T02:17:20;9.20;99.90
2639;DHT22;1329;51.384;7.122;2023-04-08T02:19:59;9.20;99.90
2639;DHT22;1329;51.384;7.122;2023-04-08T02:22:40;9.10;99.90
2639;DHT22;1329;51.384;7.122;2023-04-08T02:25:14;9.10;99.90
2639;DHT22;1329;51.384;7.122;2023-04-08T02:27:47;9.00;99.90
2639;DHT22;1329;51.384;7.122;2023-04-08T02:30:19;8.90;99.90
2639;DHT22;1329;51.384;7.122;2023-04-08T02:32:48;8.80;99.90
2639;DHT22;1329;51.384;7.122;2023-04-08T02:35:17;8.90;99.90
2639;DHT22;1329;51.384;7.122;2023-04-08T02:37:53;8.80;99.90
2639;DHT22;1329;51.384;7.122;2023-04-08T02:40:30;8.90;99.90
2639;DHT22;1329;51.384;7.122;2023-04-08T02:43:03;8.90;99.90
2639;DHT22;1329;51.384;7.122;2023-04-08T02:45:31;8.90;99.90
2639;DHT22;1329;51.384;7.122;2023-04-08T02:48:02;8.90;99.90
2639;DHT22;1329;51.384;7.122;2023-04-08T02:50:38;8.90;99.90
2639;DHT22;1329;51.384;7.122;2023-04-08T02:53:16;8.90;99.90
2639;DHT22;1329;51.384;7.122;2023-04-08T02:55:43;8.90;99.90
2639;DHT22;1329;51.384;7.122;2023-04-08T02:58:16;8.90;99.90
2639;DHT22;1329;51.384;7.122;2023-04-08T03:00:44;9.00;99.90
2639;DHT22;1329;51.384;7.122;2023-04-08T03:03:21;8.90;99.90
2639;DHT22;1329;51.384;7.122;2023-04-08T03:05:55;8.90;99.90
2639;DHT22;1329;51.384;7.122;2023-04-08T03:08:37;9.00;99.90
2639;DHT22;1329;51.384;7.122;2023-04-08T03:11:04;8.90;99.90
2639;DHT22;1329;51.384;7.122;2023-04-08T03:13:34;9.00;99.90
2639;DHT22;1329;51.384;7.122;2023-04-08T03:16:04;9.00;99.90
2639;DHT22;1329;51.384;7.122;2023-04-08T03:18:41;9.10;99.90
2639;DHT22;1329;51.384;7.122;2023-04-08T03:21:11;9.00;99.90
2639;DHT22;1329;51.384;7.122;2023-04-08T03:23:39;9.10;99.90
2639;DHT22;1329;51.384;7.122;2023-04-08T03:26:06;9.00;99.90
2639;DHT22;1329;51.384;7.122;2023-04-08T03:28:46;9.10;99.90
2639;DHT22;1329;51.384;7.122;2023-04-08T03:31:20;9.10;99.90
2639;DHT22;1329;51.384;7.122;2023-04-08T03:33:54;9.10;99.90
2639;DHT22;1329;51.384;7.122;2023-04-08T03:36:25;9.10;99.90
2639;DHT22;1329;51.384;7.122;2023-04-08T03:38:55;9.10;99.90
2639;DHT22;1329;51.384;7.122;2023-04-08T03:41:26;9.10;99.90
2639;DHT22;1329;51.384;7.122;2023-04-08T03:43:54;9.10;99.90
2639;DHT22;1329;51.384;7.122;2023-04-08T03:46:26;9.10;99.90
2639;DHT22;1329;51.384;7.122;2023-04-08T03:48:54;9.10;99.90
2639;DHT22;1329;51.384;7.122;2023-04-08T03:51:21;9.20;99.90
2639;DHT22;1329;51.384;7.122;2023-04-08T03:53:51;9.10;99.90
2639;DHT22;1329;51.384;7.122;2023-04-08T03:56:19;9.10;99.90
2639;DHT22;1329;51.384;7.122;2023-04-08T03:58:49;9.20;99.90
2639;DHT22;1329;51.384;7.122;2023-04-08T04:01:23;9.20;99.90
2639;DHT22;1329;51.384;7.122;2023-04-08T04:03:54;9.20;99.90
2639;DHT22;1329;51.384;7.122;2023-04-08T04:06:21;9.20;99.90
2639;DHT22;1329;51.384;7.122;2023-04-08T04:08:49;9.20;99.90
2639;DHT22;1329;51.384;7.122;2023-04-08T04:11:16;9.20;99.90
2639;DHT22;1329;51.384;7.122;2023-04-08T04:13:44;9.20;99.90
2639;DHT22;1329;51.384;7.122;2023-04-08T04:16:15;9.20;99.90
2639;DHT22;1329;51.384;7.122;2023-04-08T04:18:46;9.30;99.90
2639;DHT22;1329;51.384;7.122;2023-04-08T04:21:14;9.30;99.90
2639;DHT22;1329;51.384;7.122;2023-04-08T04:23:50;9.30;99.90
2639;DHT22;1329;51.384;7.122;2023-04-08T04:26:20;9.30;99.90
2639;DHT22;1329;51.384;7.122;2023-04-08T04:28:51;9.30;99.90
2639;DHT22;1329;51.384;7.122;2023-04-08T04:31:23;9.30;99.90
2639;DHT22;1329;51.384;7.122;2023-04-08T04:33:55;9.30;99.90
2639;DHT22;1329;51.384;7.122;2023-04-08T04:36:25;9.30;99.90
2639;DHT22;1329;51.384;7.122;2023-04-08T04:39:00;9.20;99.90
2639;DHT22;1329;51.384;7.122;2023-04-08T04:41:28;9.20;99.90
2639;DHT22;1329;51.384;7.122;2023-04-08T04:43:55;9.20;99.90
2639;DHT22;1329;51.384;7.122;2023-04-08T04:46:25;9.20;99.90
2639;DHT22;1329;51.384;7.122;2023-04-08T04:48:54;9.20;99.90
2639;DHT22;1329;51.384;7.122;2023-04-08T04:51:31;9.20;99.90
2639;DHT22;1329;51.384;7.122;2023-04-08T04:54:00;9.20;99.90
2639;DHT22;1329;51.384;7.122;2023-04-08T04:56:31;9.20;99.90
2639;DHT22;1329;51.384;7.122;2023-04-08T04:59:00;9.20;99.90
2639;DHT22;1329;51.384;7.122;2023-04-08T05:01:30;9.20;99.90
2639;DHT22;1329;51.384;7.122;2023-04-08T05:04:01;9.10;99.90
2639;DHT22;1329;51.384;7.122;2023-04-08T05:06:31;9.10;99.90
2639;DHT22;1329;51.384;7.122;2023-04-08T05:09:07;9.10;99.90
2639;DHT22;1329;51.384;7.122;2023-04-08T05:11:38;9.10;99.90
2639;DHT22;1329;51.384;7.122;2023-04-08T05:14:06;9.10;99.90
2639;DHT22;1329;51.384;7.122;2023-04-08T05:16:33;9.10;99.90
2639;DHT22;1329;51.384;7.122;2023-04-08T05:19:05;9.10;99.90
2639;DHT22;1329;51.384;7.122;2023-04-08T05:21:35;9.10;99.90
2639;DHT22;1329;51.384;7.122;2023-04-08T05:24:04;9.10;99.90
2639;DHT22;1329;51.384;7.122;2023-04-08T05:26:36;9.10;99.90
2639;DHT22;1329;51.384;7.122;2023-04-08T05:29:04;9.10;99.90
2639;DHT22;1329;51.384;7.122;2023-04-08T05:31:32;9.10;99.90
2639;DHT22;1329;51.384;7.122;2023-04-08T05:34:04;9.10;99.90
2639;DHT22;1329;51.384;7.122;2023-04-08T05:36:40;9.10;99.90
2639;DHT22;1329;51.384;7.122;2023-04-08T05:39:10;9.10;99.90
2639;DHT22;1329;51.384;7.122;2023-04-08T05:41:38;9.10;99.90
2639;DHT22;1329;51.384;7.122;2023-04-08T05:44:06;9.10;99.90
2639;DHT22;1329;51.384;7.122;2023-04-08T05:46:45;9.10;99.90
2639;DHT22;1329;51.384;7.122;2023-04-08T05:49:36;9.10;99.90
2639;DHT22;1329;51.384;7.122;2023-04-08T05:52:19;9.10;99.90
2639;DHT22;1329;51.384;7.122;2023-04-08T05:54:56;9.20;99.90
2639;DHT22;1329;51.384;7.122;2023-04-08T05:57:23;9.20;99.90
2639;DHT22;1329;51.384;7.122;2023-04-08T05:59:51;9.20;99.90
2639;DHT22;1329;51.384;7.122;2023-04-08T06:02:21;9.20;99.90
2639;DHT22;1329;51.384;7.122;2023-04-08T06:04:59;9.20;99.90
2639;DHT22;1329;51.384;7.122;2023-04-08T06:07:30;9.30;99.90
2639;DHT22;1329;51.384;7.122;2023-04-08T06:10:01;9.20;99.90
2639;DHT22;1329;51.384;7.122;2023-04-08T06:12:35;9.30;99.90
2639;DHT22;1329;51.384;7.122;2023-04-08T06:15:08;9.30;99.90
2639;DHT22;1329;51.384;7.122;2023-04-08T06:17:41;9.30;99.90
2639;DHT22;1329;51.384;7.122;2023-04-08T06:20:15;9.30;99.90
2639;DHT22;1329;51.384;7.122;2023-04-08T06:22:50;9.30;99.90
2639;DHT22;1329;51.384;7.122;2023-04-08T06:25:28;9.30;99.90
2639;DHT22;1329;51.384;7.122;2023-04-08T06:27:58;9.30;99.90
2639;DHT22;1329;51.384;7.122;2023-04-08T06:30:36;9.30;99.90
2639;DHT22;1329;51.384;7.122;2023-04-08T06:33:16;9.40;99.90
2639;DHT22;1329;51.384;7.122;2023-04-08T06:36:00;9.40;99.90
2639;DHT22;1329;51.384;7.122;2023-04-08T06:38:31;9.40;99.90
2639;DHT22;1329;51.384;7.122;2023-04-08T06:41:04;9.40;99.90
2639;DHT22;1329;51.384;7.122;2023-04-08T06:43:32;9.40;99.90
2639;DHT22;1329;51.384;7.122;2023-04-08T06:46:19;9.40;99.90
2639;DHT22;1329;51.384;7.122;2023-04-08T06:48:56;9.40;99.90
2639;DHT22;1329;51.384;7.122;2023-04-08T06:51:31;9.50;99.90
2639;DHT22;1329;51.384;7.122;2023-04-08T06:54:17;9.50;99.90
2639;DHT22;1329;51.384;7.122;2023-04-08T06:56:54;9.50;99.90
2639;DHT22;1329;51.384;7.122;2023-04-08T06:59:24;9.60;99.90
2639;DHT22;1329;51.384;7.122;2023-04-08T07:01:54;9.60;99.90
2639;DHT22;1329;51.384;7.122;2023-04-08T07:04:23;9.60;99.90
2639;DHT22;1329;51.384;7.122;2023-04-08T07:06:53;9.70;99.90
2639;DHT22;1329;51.384;7.122;2023-04-08T07:09:22;9.70;99.90
2639;DHT22;1329;51.384;7.122;2023-04-08T07:11:51;9.80;99.90
2639;DHT22;1329;51.384;7.122;2023-04-08T07:14:34;9.80;99.90
2639;DHT22;1329;51.384;7.122;2023-04-08T07:17:01;9.80;99.90
2639;DHT22;1329;51.384;7.122;2023-04-08T07:19:35;9.80;99.90
2639;DHT22;1329;51.384;7.122;2023-04-08T07:22:17;9.80;99.90
2639;DHT22;1329;51.384;7.122;2023-04-08T07:25:03;9.80;99.90
2639;DHT22;1329;51.384;7.122;2023-04-08T07:27:50;9.90;99.90
2639;DHT22;1329;51.384;7.122;2023-04-08T07:30:19;9.90;99.90
2639;DHT22;1329;51.384;7.122;2023-04-08T07:32:58;9.90;99.90
2639;DHT22;1329;51.384;7.122;2023-04-08T07:35:36;10.00;99.90
2639;DHT22;1329;51.384;7.122;2023-04-08T07:38:09;10.00;99.90
2639;DHT22;1329;51.384;7.122;2023-04-08T07:40:38;10.00;99.90
2639;DHT22;1329;51.384;7.122;2023-04-08T07:43:14;10.00;99.90
2639;DHT22;1329;51.384;7.122;2023-04-08T07:46:22;10.00;99.90
2639;DHT22;1329;51.384;7.122;2023-04-08T07:51:42;10.10;99.90
2639;DHT22;1329;51.384;7.122;2023-04-08T07:54:10;10.10;99.90
2639;DHT22;1329;51.384;7.122;2023-04-08T07:57:15;10.20;99.90
2639;DHT22;1329;51.384;7.122;2023-04-08T07:59:35;10.20;99.90
2639;DHT22;1329;51.384;7.122;2023-04-08T08:02:02;10.20;99.90
2639;DHT22;1329;51.384;7.122;2023-04-08T08:04:30;10.20;99.90
2639;DHT22;1329;51.384;7.122;2023-04-08T08:07:06;10.20;99.90
2639;DHT22;1329;51.384;7.122;2023-04-08T08:09:54;10.20;99.90
2639;DHT22;1329;51.384;7.122;2023-04-08T08:12:32;10.30;99.90
2639;DHT22;1329;51.384;7.122;2023-04-08T08:15:28;10.30;99.90
2639;DHT22;1329;51.384;7.122;2023-04-08T08:17:59;10.30;99.90
2639;DHT22;1329;51.384;7.122;2023-04-08T08:20:26;10.40;99.90
2639;DHT22;1329;51.384;7.122;2023-04-08T08:22:58;10.40;99.90
2639;DHT22;1329;51.384;7.122;2023-04-08T08:25:32;10.40;99.90
2639;DHT22;1329;51.384;7.122;2023-04-08T08:28:04;10.50;99.90
2639;DHT22;1329;51.384;7.122;2023-04-08T08:30:55;10.50;99.90
2639;DHT22;1329;51.384;7.122;2023-04-08T08:33:27;10.60;99.90
2639;DHT22;1329;51.384;7.122;2023-04-08T08:36:03;10.60;99.90
2639;DHT22;1329;51.384;7.122;2023-04-08T08:38:39;10.60;99.90
2639;DHT22;1329;51.384;7.122;2023-04-08T08:41:19;10.60;99.90
2639;DHT22;1329;51.384;7.122;2023-04-08T08:44:01;10.60;99.90
2639;DHT22;1329;51.384;7.122;2023-04-08T08:46:34;10.70;99.90
2639;DHT22;1329;51.384;7.122;2023-04-08T08:49:01;10.70;99.90
2639;DHT22;1329;51.384;7.122;2023-04-08T08:51:34;10.80;99.90
2639;DHT22;1329;51.384;7.122;2023-04-08T08:54:17;10.90;99.90
2639;DHT22;1329;51.384;7.122;2023-04-08T08:56:56;11.00;99.90
2639;DHT22;1329;51.384;7.122;2023-04-08T08:59:32;11.10;99.90
2639;DHT22;1329;51.384;7.122;2023-04-08T09:02:28;11.20;99.90
2639;DHT22;1329;51.384;7.122;2023-04-08T09:05:09;11.30;99.90
2639;DHT22;1329;51.384;7.122;2023-04-08T09:07:54;11.30;99.90
2639;DHT22;1329;51.384;7.122;2023-04-08T09:10:27;11.40;99.90
2639;DHT22;1329;51.384;7.122;2023-04-08T09:13:02;11.50;99.90
2639;DHT22;1329;51.384;7.122;2023-04-08T09:16:01;11.60;99.90
2639;DHT22;1329;51.384;7.122;2023-04-08T09:18:32;11.70;99.90
2639;DHT22;1329;51.384;7.122;2023-04-08T09:21:05;11.70;99.90
2639;DHT22;1329;51.384;7.122;2023-04-08T09:23:41;11.80;99.90
2639;DHT22;1329;51.384;7.122;2023-04-08T09:26:20;11.80;99.90
2639;DHT22;1329;51.384;7.122;2023-04-08T09:29:13;11.80;99.90
2639;DHT22;1329;51.384;7.122;2023-04-08T09:32:05;11.80;99.90
2639;DHT22;1329;51.384;7.122;2023-04-08T09:34:42;11.80;99.90
2639;DHT22;1329;51.384;7.122;2023-04-08T09:37:22;11.80;99.90
2639;DHT22;1329;51.384;7.122;2023-04-08T09:39:50;11.80;99.90
2639;DHT22;1329;51.384;7.122;2023-04-08T09:42:21;11.80;99.90
2639;DHT22;1329;51.384;7.122;2023-04-08T09:45:06;11.80;99.90
2639;DHT22;1329;51.384;7.122;2023-04-08T09:47:47;11.90;99.90
2639;DHT22;1329;51.384;7.122;2023-04-08T09:50:38;12.00;99.90
2639;DHT22;1329;51.384;7.122;2023-04-08T09:53:22;12.00;99.90
2639;DHT22;1329;51.384;7.122;2023-04-08T09:56:01;12.10;99.90
2639;DHT22;1329;51.384;7.122;2023-04-08T09:58:44;12.20;99.90
2639;DHT22;1329;51.384;7.122;2023-04-08T10:01:35;12.20;99.90
2639;DHT22;1329;51.384;7.122;2023-04-08T10:04:14;12.30;99.90
2639;DHT22;1329;51.384;7.122;2023-04-08T10:06:42;12.30;99.90
2639;DHT22;1329;51.384;7.122;2023-04-08T10:09:10;12.30;99.90
2639;DHT22;1329;51.384;7.122;2023-04-08T10:11:40;12.30;99.90
2639;DHT22;1329;51.384;7.122;2023-04-08T10:14:14;12.30;99.90
2639;DHT22;1329;51.384;7.122;2023-04-08T10:17:28;12.30;99.90
2639;DHT22;1329;51.384;7.122;2023-04-08T10:23:55;12.20;99.90
2639;DHT22;1329;51.384;7.122;2023-04-08T10:26:38;12.20;99.90
2639;DHT22;1329;51.384;7.122;2023-04-08T10:29:46;12.10;99.90
2639;DHT22;1329;51.384;7.122;2023-04-08T10:32:46;12.10;99.90
2639;DHT22;1329;51.384;7.122;2023-04-08T10:35:31;12.00;99.90
2639;DHT22;1329;51.384;7.122;2023-04-08T10:38:16;11.90;99.90
2639;DHT22;1329;51.384;7.122;2023-04-08T10:41:07;11.90;99.90
2639;DHT22;1329;51.384;7.122;2023-04-08T10:43:49;11.80;99.90
2639;DHT22;1329;51.384;7.122;2023-04-08T10:46:48;11.70;99.90
2639;DHT22;1329;51.384;7.122;2023-04-08T10:49:44;11.70;99.90
2639;DHT22;1329;51.384;7.122;2023-04-08T10:56:16;11.50;99.90
2639;DHT22;1329;51.384;7.122;2023-04-08T10:59:06;11.40;99.90
2639;DHT22;1329;51.384;7.122;2023-04-08T11:01:48;11.30;99.90
2639;DHT22;1329;51.384;7.122;2023-04-08T11:04:22;11.30;99.90
2639;DHT22;1329;51.384;7.122;2023-04-08T11:07:05;11.20;99.90
2639;DHT22;1329;51.384;7.122;2023-04-08T11:09:33;11.20;99.90
2639;DHT22;1329;51.384;7.122;2023-04-08T11:12:00;11.20;99.90
2639;DHT22;1329;51.384;7.122;2023-04-08T11:14:30;11.30;99.90
2639;DHT22;1329;51.384;7.122;2023-04-08T11:17:08;11.30;99.90
2639;DHT22;1329;51.384;7.122;2023-04-08T11:19:46;11.30;99.90
2639;DHT22;1329;51.384;7.122;2023-04-08T11:22:35;11.40;99.90
2639;DHT22;1329;51.384;7.122;2023-04-08T11:25:08;11.50;99.90
2639;DHT22;1329;51.384;7.122;2023-04-08T11:27:56;11.60;99.90
2639;DHT22;1329;51.384;7.122;2023-04-08T11:30:41;11.70;99.90
2639;DHT22;1329;51.384;7.122;2023-04-08T11:33:16;11.70;99.90
2639;DHT22;1329;51.384;7.122;2023-04-08T11:35:49;11.80;99.90
2639;DHT22;1329;51.384;7.122;2023-04-08T11:38:23;11.90;99.90
2639;DHT22;1329;51.384;7.122;2023-04-08T11:43:59;11.90;99.90
2639;DHT22;1329;51.384;7.122;2023-04-08T11:46:37;12.00;99.90
2639;DHT22;1329;51.384;7.122;2023-04-08T11:49:07;12.00;99.90
2639;DHT22;1329;51.384;7.122;2023-04-08T11:51:55;12.10;99.90
2639;DHT22;1329;51.384;7.122;2023-04-08T11:54:39;12.20;99.90
2639;DHT22;1329;51.384;7.122;2023-04-08T11:57:07;12.20;99.90
2639;DHT22;1329;51.384;7.122;2023-04-08T11:59:35;12.30;99.90
2639;DHT22;1329;51.384;7.122;2023-04-08T12:02:04;12.30;99.90
2639;DHT22;1329;51.384;7.122;2023-04-08T12:04:36;12.40;99.90
2639;DHT22;1329;51.384;7.122;2023-04-08T12:07:07;12.40;99.90
2639;DHT22;1329;51.384;7.122;2023-04-08T12:09:40;12.50;99.90
2639;DHT22;1329;51.384;7.122;2023-04-08T12:12:08;12.60;99.90
2639;DHT22;1329;51.384;7.122;2023-04-08T12:14:35;12.60;99.90
2639;DHT22;1329;51.384;7.122;2023-04-08T12:17:11;12.60;99.90
2639;DHT22;1329;51.384;7.122;2023-04-08T12:20:00;12.70;99.90
2639;DHT22;1329;51.384;7.122;2023-04-08T12:22:43;12.70;99.90
2639;DHT22;1329;51.384;7.122;2023-04-08T12:25:17;12.70;99.90
2639;DHT22;1329;51.384;7.122;2023-04-08T12:28:21;12.70;99.90
2639;DHT22;1329;51.384;7.122;2023-04-08T12:30:54;12.70;99.90
2639;DHT22;1329;51.384;7.122;2023-04-08T12:33:39;12.80;99.90
2639;DHT22;1329;51.384;7.122;2023-04-08T12:36:22;12.80;99.90
2639;DHT22;1329;51.384;7.122;2023-04-08T12:38:52;12.90;99.90
2639;DHT22;1329;51.384;7.122;2023-04-08T12:41:38;13.00;99.90
2639;DHT22;1329;51.384;7.122;2023-04-08T12:44:06;13.00;99.90
2639;DHT22;1329;51.384;7.122;2023-04-08T12:46:36;13.00;99.90
2639;DHT22;1329;51.384;7.122;2023-04-08T12:49:13;13.00;99.90
2639;DHT22;1329;51.384;7.122;2023-04-08T12:51:50;13.10;99.90
2639;DHT22;1329;51.384;7.122;2023-04-08T12:54:32;13.10;99.90
2639;DHT22;1329;51.384;7.122;2023-04-08T12:57:06;13.10;99.90
2639;DHT22;1329;51.384;7.122;2023-04-08T12:59:37;13.10;99.90
2639;DHT22;1329;51.384;7.122;2023-04-08T13:02:24;13.00;99.90
2639;DHT22;1329;51.384;7.122;2023-04-08T13:04:58;13.00;99.90
2639;DHT22;1329;51.384;7.122;2023-04-08T13:07:26;13.00;99.90
2639;DHT22;1329;51.384;7.122;2023-04-08T13:10:00;13.00;99.90
2639;DHT22;1329;51.384;7.122;2023-04-08T13:12:38;12.90;99.90
2639;DHT22;1329;51.384;7.122;2023-04-08T13:15:10;12.90;99.90
2639;DHT22;1329;51.384;7.122;2023-04-08T13:17:38;12.90;99.90
2639;DHT22;1329;51.384;7.122;2023-04-08T13:20:12;12.90;99.90
2639;DHT22;1329;51.384;7.122;2023-04-08T13:22:45;12.90;99.90
2639;DHT22;1329;51.384;7.122;2023-04-08T13:25:17;12.90;99.90
2639;DHT22;1329;51.384;7.122;2023-04-08T13:27:56;12.90;99.90
2639;DHT22;1329;51.384;7.122;2023-04-08T13:30:24;12.90;99.90
2639;DHT22;1329;51.384;7.122;2023-04-08T13:32:55;12.90;99.90
2639;DHT22;1329;51.384;7.122;2023-04-08T13:35:37;12.90;99.90
2639;DHT22;1329;51.384;7.122;2023-04-08T13:38:10;12.90;99.90
2639;DHT22;1329;51.384;7.122;2023-04-08T13:40:40;13.00;99.90
2639;DHT22;1329;51.384;7.122;2023-04-08T13:43:15;13.00;99.90
2639;DHT22;1329;51.384;7.122;2023-04-08T13:45:44;13.10;99.90
2639;DHT22;1329;51.384;7.122;2023-04-08T13:48:12;13.10;99.90
2639;DHT22;1329;51.384;7.122;2023-04-08T13:50:51;13.10;99.90
2639;DHT22;1329;51.384;7.122;2023-04-08T13:53:24;13.20;99.90
2639;DHT22;1329;51.384;7.122;2023-04-08T13:55:55;13.10;99.90
2639;DHT22;1329;51.384;7.122;2023-04-08T13:58:41;13.10;99.90
2639;DHT22;1329;51.384;7.122;2023-04-08T14:01:12;13.10;99.90
2639;DHT22;1329;51.384;7.122;2023-04-08T14:03:47;13.10;99.90
2639;DHT22;1329;51.384;7.122;2023-04-08T14:06:16;13.10;99.90
2639;DHT22;1329;51.384;7.122;2023-04-08T14:08:43;13.20;99.90
2639;DHT22;1329;51.384;7.122;2023-04-08T14:11:13;13.10;99.90
2639;DHT22;1329;51.384;7.122;2023-04-08T14:13:46;13.10;99.90
2639;DHT22;1329;51.384;7.122;2023-04-08T14:16:20;13.10;99.90
2639;DHT22;1329;51.384;7.122;2023-04-08T14:18:49;13.10;99.90
2639;DHT22;1329;51.384;7.122;2023-04-08T14:21:22;13.10;99.90
2639;DHT22;1329;51.384;7.122;2023-04-08T14:23:52;13.10;99.90
2639;DHT22;1329;51.384;7.122;2023-04-08T14:26:21;13.00;99.90
2639;DHT22;1329;51.384;7.122;2023-04-08T14:28:50;13.00;99.90
2639;DHT22;1329;51.384;7.122;2023-04-08T14:31:29;13.00;99.90
2639;DHT22;1329;51.384;7.122;2023-04-08T14:33:58;12.90;99.90
2639;DHT22;1329;51.384;7.122;2023-04-08T14:36:29;12.90;99.90
2639;DHT22;1329;51.384;7.122;2023-04-08T14:39:00;12.90;99.90
2639;DHT22;1329;51.384;7.122;2023-04-08T14:41:36;12.90;99.90
2639;DHT22;1329;51.384;7.122;2023-04-08T14:44:08;12.80;99.90
2639;DHT22;1329;51.384;7.122;2023-04-08T14:46:39;12.80;99.90
2639;DHT22;1329;51.384;7.122;2023-04-08T14:49:07;12.80;99.90
2639;DHT22;1329;51.384;7.122;2023-04-08T14:51:40;12.80;99.90
2639;DHT22;1329;51.384;7.122;2023-04-08T14:54:10;12.80;99.90
2639;DHT22;1329;51.384;7.122;2023-04-08T14:56:44;12.80;99.90
2639;DHT22;1329;51.384;7.122;2023-04-08T14:59:21;12.80;99.90
2639;DHT22;1329;51.384;7.122;2023-04-08T15:01:56;12.80;99.90
2639;DHT22;1329;51.384;7.122;2023-04-08T15:04:27;12.80;99.90
2639;DHT22;1329;51.384;7.122;2023-04-08T15:07:03;12.80;99.90
2639;DHT22;1329;51.384;7.122;2023-04-08T15:09:49;12.80;99.90
2639;DHT22;1329;51.384;7.122;2023-04-08T15:12:17;12.80;99.90
2639;DHT22;1329;51.384;7.122;2023-04-08T15:14:52;12.80;99.90
2639;DHT22;1329;51.384;7.122;2023-04-08T15:17:24;12.80;99.90
2639;DHT22;1329;51.384;7.122;2023-04-08T15:19:52;12.80;99.90
2639;DHT22;1329;51.384;7.122;2023-04-08T15:22:24;12.80;99.90
2639;DHT22;1329;51.384;7.122;2023-04-08T15:24:58;12.70;99.90
2639;DHT22;1329;51.384;7.122;2023-04-08T15:27:28;12.70;99.90
2639;DHT22;1329;51.384;7.122;2023-04-08T15:29:57;12.70;99.90
2639;DHT22;1329;51.384;7.122;2023-04-08T15:32:27;12.70;99.90
2639;DHT22;1329;51.384;7.122;2023-04-08T15:34:58;12.70;99.90
2639;DHT22;1329;51.384;7.122;2023-04-08T15:37:26;12.70;99.90
2639;DHT22;1329;51.384;7.122;2023-04-08T15:39:57;12.70;99.90
2639;DHT22;1329;51.384;7.122;2023-04-08T15:42:28;12.70;99.90
2639;DHT22;1329;51.384;7.122;2023-04-08T15:44:56;12.70;99.90
2639;DHT22;1329;51.384;7.122;2023-04-08T15:47:24;12.70;99.90
2639;DHT22;1329;51.384;7.122;2023-04-08T15:50:02;12.80;99.90
2639;DHT22;1329;51.384;7.122;2023-04-08T15:52:34;12.80;99.90
2639;DHT22;1329;51.384;7.122;2023-04-08T15:55:05;12.80;99.90
2639;DHT22;1329;51.384;7.122;2023-04-08T15:57:42;12.90;99.90
2639;DHT22;1329;51.384;7.122;2023-04-08T16:00:12;12.90;99.90
2639;DHT22;1329;51.384;7.122;2023-04-08T16:02:43;12.90;99.90
2639;DHT22;1329;51.384;7.122;2023-04-08T16:05:17;12.90;99.90
2639;DHT22;1329;51.384;7.122;2023-04-08T16:07:51;12.90;99.90
2639;DHT22;1329;51.384;7.122;2023-04-08T16:10:23;13.00;99.90
2639;DHT22;1329;51.384;7.122;2023-04-08T16:12:51;12.90;99.90
2639;DHT22;1329;51.384;7.122;2023-04-08T16:15:20;12.90;99.90
2639;DHT22;1329;51.384;7.122;2023-04-08T16:17:49;13.00;99.90
2639;DHT22;1329;51.384;7.122;2023-04-08T16:20:17;13.00;99.90
2639;DHT22;1329;51.384;7.122;2023-04-08T16:22:48;13.00;99.90
2639;DHT22;1329;51.384;7.122;2023-04-08T16:25:18;13.00;99.90
2639;DHT22;1329;51.384;7.122;2023-04-08T16:27:48;13.00;99.90
2639;DHT22;1329;51.384;7.122;2023-04-08T16:30:15;13.00;99.90
2639;DHT22;1329;51.384;7.122;2023-04-08T16:32:43;13.00;99.90
2639;DHT22;1329;51.384;7.122;2023-04-08T16:35:17;12.90;99.90
2639;DHT22;1329;51.384;7.122;2023-04-08T16:37:58;13.00;99.90
2639;DHT22;1329;51.384;7.122;2023-04-08T16:40:33;13.00;99.90
2639;DHT22;1329;51.384;7.122;2023-04-08T16:43:01;13.00;99.90
2639;DHT22;1329;51.384;7.122;2023-04-08T16:45:32;13.00;99.90
2639;DHT22;1329;51.384;7.122;2023-04-08T16:48:07;13.10;99.90
2639;DHT22;1329;51.384;7.122;2023-04-08T16:50:37;13.10;99.90
2639;DHT22;1329;51.384;7.122;2023-04-08T16:53:05;13.10;99.90
2639;DHT22;1329;51.384;7.122;2023-04-08T16:55:36;13.10;99.90
2639;DHT22;1329;51.384;7.122;2023-04-08T16:58:14;13.10;99.90
2639;DHT22;1329;51.384;7.122;2023-04-08T17:00:51;13.10;99.90
2639;DHT22;1329;51.384;7.122;2023-04-08T17:03:29;13.10;99.90
2639;DHT22;1329;51.384;7.122;2023-04-08T17:06:07;13.10;99.90
2639;DHT22;1329;51.384;7.122;2023-04-08T17:08:56;13.10;99.90
2639;DHT22;1329;51.384;7.122;2023-04-08T17:11:23;13.10;99.90